Strona główna
METAR-TAF:

METAR-TAF

Lotnisko :

Port lotniczy Londyn-Biggin Hill

Londyn Biggin Hill, Anglia

Szerokość geograficzna: 51-19N, Długość geograficzna: 000-02E, wysokość: 183 m

Aktualna obserwacja pogody

Raport powstał 15 minut temu, godzina 08:20 UTC
Wiatr 5 kt od wschód, zmienny między wschodnio-północny wschód i południowy wschód
Temperatura 13°C
Wilgotność 58%
Ciśnienie 1030 hPa
Widzialność 10 km lub więcej
Brak chmur poniżej 1500 m i brak chmur cumulonimbus

METAR: EGKB 070820Z 10005KT 060V140 CAVOK 13/05 Q1030

czas: 09:35 (08:35 UTC)

Prognoza

Raport powstał 37 minut temu, godzina 07:58 UTC
Prognoza ważna od 07 godzina 09 UTC do 07 godzina 18 UTC
Wiatr 7 kt od południowy wschód
Widzialność 10 km lub więcej
Brak chmur poniżej 1500 m i brak chmur cumulonimbus

TAF: EGKB 070758Z 0709/0718 13007KT CAVOK

Obserwacja i prognoza pogody dla ponad 4000 lotnisk (raport METAR i TAF).

Dostępne stacje oznaczono żółtymi i czerwonymi punktami na mapie.

Najedź kursorem aby zobaczyć nazwę stacji.

Kliknij aby zobaczyć obserwacje i prognozy pogody.

Aby zmienić mapę: kliknij na zielony przycisk z czarnym krzyżykiem, aby powiększyć; na zielony przycisk z myślnikiem, aby pomniejszyć; na zielone strzałki, aby przejść do map sąsiednich.


METAR-TAF: